createdAt,value
2022-10-20T00:01:59.992Z,8.70
2022-10-20T00:04:29.843Z,8.72
2022-10-20T00:06:56.651Z,8.67
2022-10-20T00:09:23.720Z,8.68
2022-10-20T00:11:50.526Z,8.67
2022-10-20T00:14:17.461Z,8.64
2022-10-20T00:16:44.338Z,8.63
2022-10-20T00:19:12.427Z,8.61
2022-10-20T00:21:40.851Z,8.60
2022-10-20T00:24:07.862Z,8.58
2022-10-20T00:26:34.678Z,8.60
2022-10-20T00:29:03.171Z,8.59
2022-10-20T00:31:30.703Z,8.60
2022-10-20T00:33:57.904Z,8.57
2022-10-20T00:36:25.062Z,8.60
2022-10-20T00:38:57.652Z,8.58
2022-10-20T00:41:24.638Z,8.56
2022-10-20T00:43:53.382Z,8.51
2022-10-20T00:46:23.200Z,8.57
2022-10-20T00:48:53.162Z,8.57
2022-10-20T00:51:22.575Z,8.54
2022-10-20T00:53:53.510Z,8.53
2022-10-20T00:56:23.209Z,8.50
2022-10-20T00:58:50.557Z,8.51
2022-10-20T01:01:18.255Z,8.51
2022-10-20T01:03:48.227Z,8.39
2022-10-20T01:08:44.079Z,8.50
2022-10-20T01:11:18.952Z,8.50
2022-10-20T01:13:59.489Z,8.45
2022-10-20T01:16:36.000Z,8.47
2022-10-20T01:19:21.006Z,8.48
2022-10-20T01:22:05.242Z,8.45
2022-10-20T01:24:55.680Z,8.41
2022-10-20T01:27:33.712Z,8.42
2022-10-20T01:30:08.641Z,8.35
2022-10-20T01:32:50.480Z,8.43
2022-10-20T01:35:26.152Z,8.40
2022-10-20T01:37:59.996Z,8.40
2022-10-20T01:40:31.250Z,8.40
2022-10-20T01:43:02.143Z,8.38
2022-10-20T01:45:32.934Z,8.36
2022-10-20T01:48:04.231Z,8.32
2022-10-20T01:50:32.308Z,8.32
2022-10-20T01:53:00.261Z,8.32
2022-10-20T01:55:27.122Z,8.27
2022-10-20T01:58:12.041Z,8.21
2022-10-20T02:00:40.282Z,8.25
2022-10-20T02:03:31.911Z,8.24
2022-10-20T02:06:14.753Z,8.23
2022-10-20T02:08:45.609Z,8.28
2022-10-20T02:11:21.102Z,8.32
2022-10-20T02:13:50.036Z,8.31
2022-10-20T02:16:22.848Z,8.33
2022-10-20T02:18:50.573Z,8.32
2022-10-20T02:21:18.084Z,8.31
2022-10-20T02:23:47.504Z,8.33
2022-10-20T02:26:18.128Z,8.34
2022-10-20T02:28:48.229Z,8.38
2022-10-20T02:31:17.209Z,8.34
2022-10-20T02:33:46.545Z,8.34
2022-10-20T02:36:18.145Z,8.33
2022-10-20T02:38:45.358Z,8.36
2022-10-20T02:41:12.124Z,8.34
2022-10-20T02:43:39.108Z,8.30
2022-10-20T02:46:06.243Z,8.32
2022-10-20T02:48:34.770Z,8.32
2022-10-20T02:51:01.862Z,8.31
2022-10-20T02:53:28.619Z,8.34
2022-10-20T02:55:55.533Z,8.32
2022-10-20T02:58:22.400Z,8.31
2022-10-20T03:00:50.756Z,8.32
2022-10-20T03:03:18.123Z,8.28
2022-10-20T03:05:47.796Z,8.30
2022-10-20T03:08:15.133Z,8.24
2022-10-20T03:10:42.899Z,8.31
2022-10-20T03:13:10.364Z,8.29
2022-10-20T03:15:37.839Z,8.25
2022-10-20T03:18:05.395Z,8.24
2022-10-20T03:20:32.675Z,8.24
2022-10-20T03:23:00.888Z,8.22
2022-10-20T03:25:27.787Z,8.24
2022-10-20T03:27:54.923Z,8.26
2022-10-20T03:30:21.743Z,8.22
2022-10-20T03:32:48.722Z,8.21
2022-10-20T03:35:15.594Z,8.26
2022-10-20T03:37:42.388Z,8.14
2022-10-20T03:40:11.624Z,8.17
2022-10-20T03:42:38.920Z,8.11
2022-10-20T03:45:07.223Z,8.13
2022-10-20T03:47:34.265Z,7.96
2022-10-20T03:50:01.402Z,8.05
2022-10-20T03:52:28.201Z,7.96
2022-10-20T03:54:55.038Z,7.90
2022-10-20T03:57:23.218Z,7.90
2022-10-20T03:59:50.097Z,7.81
2022-10-20T04:02:33.015Z,7.89
2022-10-20T04:05:00.391Z,7.88
2022-10-20T04:07:27.193Z,7.93
2022-10-20T04:09:54.143Z,7.92
2022-10-20T04:12:20.985Z,7.94
2022-10-20T04:14:49.420Z,7.96
2022-10-20T04:17:16.469Z,7.87
2022-10-20T04:19:43.220Z,8.00
2022-10-20T04:22:10.341Z,8.00
2022-10-20T04:24:37.398Z,7.88
2022-10-20T04:27:04.716Z,7.95
2022-10-20T04:29:31.863Z,7.92
2022-10-20T04:32:00.218Z,7.90
2022-10-20T04:34:27.166Z,7.86
2022-10-20T04:36:53.886Z,7.80
2022-10-20T04:39:20.881Z,7.79
2022-10-20T04:41:47.662Z,7.85
2022-10-20T04:44:15.382Z,7.84
2022-10-20T04:46:42.075Z,7.81
2022-10-20T04:49:10.251Z,7.87
2022-10-20T04:51:37.004Z,7.84
2022-10-20T04:56:35.740Z,7.78
2022-10-20T04:59:03.193Z,7.85
2022-10-20T05:01:31.182Z,7.95
2022-10-20T05:03:58.627Z,7.98
2022-10-20T05:06:28.892Z,8.04
2022-10-20T05:08:57.427Z,8.04
2022-10-20T05:11:26.348Z,8.04
2022-10-20T05:13:53.140Z,7.99
2022-10-20T05:16:20.410Z,8.00
2022-10-20T05:18:48.596Z,8.02
2022-10-20T05:21:20.229Z,8.00
2022-10-20T05:23:48.772Z,8.00
2022-10-20T05:26:18.322Z,8.01
2022-10-20T05:28:46.755Z,7.96
2022-10-20T05:31:14.691Z,7.95
2022-10-20T05:33:46.464Z,7.95
2022-10-20T05:36:19.335Z,8.03
2022-10-20T05:38:52.400Z,7.99
2022-10-20T05:41:21.364Z,8.03
2022-10-20T05:43:49.984Z,8.04
2022-10-20T05:46:17.500Z,8.06
2022-10-20T05:48:44.790Z,8.07
2022-10-20T05:51:14.995Z,7.99
2022-10-20T05:53:42.643Z,8.07
2022-10-20T05:56:13.355Z,8.10
2022-10-20T05:58:40.214Z,8.19
2022-10-20T06:01:08.870Z,8.17
2022-10-20T06:03:36.253Z,8.09
2022-10-20T06:06:04.641Z,8.18
2022-10-20T06:08:32.135Z,8.25
2022-10-20T06:11:03.311Z,8.27
2022-10-20T06:13:33.155Z,8.22
2022-10-20T06:16:04.781Z,8.14
2022-10-20T06:18:32.444Z,8.12
2022-10-20T06:21:01.154Z,8.20
2022-10-20T06:23:28.276Z,8.22
2022-10-20T06:25:55.443Z,8.21
2022-10-20T06:28:22.326Z,8.27
2022-10-20T06:30:50.663Z,8.16
2022-10-20T06:33:17.418Z,8.29
2022-10-20T06:35:44.186Z,8.30
2022-10-20T06:38:10.943Z,8.27
2022-10-20T06:40:37.780Z,8.34
2022-10-20T06:43:04.562Z,8.29
2022-10-20T06:45:31.336Z,8.34
2022-10-20T06:47:59.558Z,8.35
2022-10-20T06:50:26.399Z,8.32
2022-10-20T06:52:53.263Z,8.42
2022-10-20T06:55:20.046Z,8.46
2022-10-20T06:57:46.856Z,8.49
2022-10-20T07:00:14.656Z,8.44
2022-10-20T07:02:41.376Z,8.51
2022-10-20T07:05:09.587Z,8.57
2022-10-20T07:10:08.876Z,8.61
2022-10-20T07:12:35.868Z,8.72
2022-10-20T07:15:02.777Z,8.60
2022-10-20T07:17:29.921Z,8.58
2022-10-20T07:19:56.746Z,8.73
2022-10-20T07:22:24.835Z,8.75
2022-10-20T07:24:51.702Z,8.71
2022-10-20T07:27:18.480Z,8.72
2022-10-20T07:29:45.555Z,8.62
2022-10-20T07:32:12.279Z,8.70
2022-10-20T07:34:39.033Z,8.78
2022-10-20T07:37:05.756Z,8.86
2022-10-20T07:39:33.928Z,8.95
2022-10-20T07:42:00.745Z,9.02
2022-10-20T07:44:28.072Z,9.10
2022-10-20T07:46:54.794Z,9.09
2022-10-20T07:49:51.391Z,9.12
2022-10-20T07:52:08.341Z,9.06
2022-10-20T07:54:36.535Z,9.22
2022-10-20T07:57:03.453Z,9.19
2022-10-20T07:59:30.497Z,9.32
2022-10-20T08:01:59.682Z,9.29
2022-10-20T08:04:27.166Z,9.47
2022-10-20T08:06:54.007Z,9.43
2022-10-20T08:09:20.819Z,9.48
2022-10-20T08:11:52.746Z,9.45
2022-10-20T08:14:22.362Z,9.56
2022-10-20T08:16:56.235Z,9.60
2022-10-20T08:19:30.674Z,9.69
2022-10-20T08:21:57.505Z,9.76
2022-10-20T08:24:24.269Z,9.85
2022-10-20T08:26:52.441Z,9.95
2022-10-20T08:29:19.409Z,9.89
2022-10-20T08:31:46.248Z,10.08
2022-10-20T08:34:13.071Z,10.12
2022-10-20T08:36:40.042Z,10.16
2022-10-20T08:39:06.869Z,10.29
2022-10-20T08:41:55.318Z,10.34
2022-10-20T08:44:28.102Z,10.47
2022-10-20T08:46:55.343Z,10.39
2022-10-20T08:49:25.218Z,10.36
2022-10-20T08:51:52.277Z,10.39
2022-10-20T08:54:19.422Z,10.40
2022-10-20T08:56:46.760Z,10.45
2022-10-20T08:59:26.655Z,10.41
2022-10-20T09:01:54.613Z,10.41
2022-10-20T09:04:25.040Z,10.46
2022-10-20T09:06:57.184Z,10.47
2022-10-20T09:09:24.790Z,10.70
2022-10-20T09:11:55.758Z,10.85
2022-10-20T09:14:22.560Z,11.07
2022-10-20T09:17:02.615Z,11.32
2022-10-20T09:19:30.597Z,11.33
2022-10-20T09:21:59.557Z,11.29
2022-10-20T09:24:30.282Z,11.45
2022-10-20T09:27:15.993Z,11.52
2022-10-20T09:29:42.891Z,11.97
2022-10-20T09:32:45.565Z,12.12
2022-10-20T09:35:24.293Z,11.89
2022-10-20T09:37:58.945Z,11.76
2022-10-20T09:40:27.184Z,11.75
2022-10-20T09:42:57.182Z,11.76
2022-10-20T09:45:31.131Z,11.75
2022-10-20T09:48:05.592Z,11.96
2022-10-20T09:50:35.127Z,11.96
2022-10-20T09:53:05.799Z,11.85
2022-10-20T09:55:36.741Z,11.67
2022-10-20T09:58:05.869Z,11.60
2022-10-20T10:00:37.897Z,11.64
2022-10-20T10:03:20.024Z,11.62
2022-10-20T10:05:51.608Z,11.45
2022-10-20T10:08:20.275Z,11.47
2022-10-20T10:10:59.274Z,11.35
2022-10-20T10:13:29.048Z,11.52
2022-10-20T10:16:02.007Z,11.24
2022-10-20T10:18:30.971Z,11.39
2022-10-20T10:21:01.515Z,11.43
2022-10-20T10:23:29.539Z,11.35
2022-10-20T10:26:00.584Z,11.44
2022-10-20T10:28:40.223Z,11.24
2022-10-20T10:31:18.446Z,11.24
2022-10-20T10:33:47.257Z,11.30
2022-10-20T10:36:25.406Z,11.25
2022-10-20T10:38:52.520Z,11.22
2022-10-20T10:41:28.349Z,11.27
2022-10-20T10:44:04.046Z,11.22
2022-10-20T10:46:37.186Z,11.24
2022-10-20T10:49:28.266Z,11.17
2022-10-20T10:52:02.754Z,11.16
2022-10-20T10:54:43.834Z,11.13
2022-10-20T10:57:15.871Z,11.17
2022-10-20T10:59:44.317Z,11.19
2022-10-20T11:02:26.965Z,11.10
2022-10-20T11:05:25.039Z,11.16
2022-10-20T11:08:02.559Z,11.24
2022-10-20T11:10:39.309Z,11.19
2022-10-20T11:13:17.703Z,11.17
2022-10-20T11:15:58.684Z,11.22
2022-10-20T11:18:44.678Z,11.21
2022-10-20T11:21:24.828Z,11.22
2022-10-20T11:24:17.989Z,11.23
2022-10-20T11:26:46.050Z,11.25
2022-10-20T11:29:18.811Z,11.22
2022-10-20T11:31:51.672Z,11.13
2022-10-20T11:34:27.418Z,11.25
2022-10-20T11:37:02.623Z,11.19
2022-10-20T11:39:38.169Z,11.32
2022-10-20T11:42:19.317Z,11.25
2022-10-20T11:44:48.406Z,11.33
2022-10-20T11:47:19.106Z,11.29
2022-10-20T11:49:46.237Z,11.28
2022-10-20T11:53:00.731Z,11.26
2022-10-20T11:55:49.206Z,11.16
2022-10-20T11:58:31.194Z,11.27
2022-10-20T12:01:25.793Z,11.30
2022-10-20T12:04:28.944Z,11.30
2022-10-20T12:07:22.464Z,11.29
2022-10-20T12:10:02.667Z,11.31
2022-10-20T12:12:36.540Z,11.31
2022-10-20T12:15:19.915Z,11.33
2022-10-20T12:17:47.763Z,11.37
2022-10-20T12:21:01.990Z,11.40
2022-10-20T12:24:02.596Z,11.42
2022-10-20T12:27:06.192Z,11.42
2022-10-20T12:30:02.195Z,11.46
2022-10-20T12:33:06.058Z,11.50
2022-10-20T12:36:02.516Z,11.54
2022-10-20T12:38:31.228Z,11.41
2022-10-20T12:41:00.277Z,11.62
2022-10-20T12:43:45.014Z,11.73
2022-10-20T12:46:21.395Z,11.80
2022-10-20T12:48:56.739Z,11.86
2022-10-20T12:51:32.904Z,11.83
2022-10-20T12:54:04.456Z,11.87
2022-10-20T12:56:36.444Z,11.86
2022-10-20T12:59:46.630Z,11.83
2022-10-20T13:02:42.775Z,11.83
2022-10-20T13:05:42.057Z,11.88
2022-10-20T13:08:29.526Z,11.83
2022-10-20T13:11:17.522Z,11.81
2022-10-20T13:14:00.024Z,11.81
2022-10-20T13:16:32.507Z,11.80
2022-10-20T13:19:00.469Z,11.80
2022-10-20T13:21:34.216Z,11.80
2022-10-20T13:24:11.535Z,11.82
2022-10-20T13:26:46.564Z,11.78
2022-10-20T13:29:20.327Z,11.86
2022-10-20T13:31:56.047Z,11.89
2022-10-20T13:34:30.635Z,11.91
2022-10-20T13:37:12.738Z,11.92
2022-10-20T13:39:51.402Z,11.92
2022-10-20T13:42:41.169Z,11.91
2022-10-20T13:45:18.457Z,11.90
2022-10-20T13:47:49.047Z,11.93
2022-10-20T13:52:54.760Z,12.04
2022-10-20T13:55:23.807Z,12.14
2022-10-20T13:57:55.583Z,12.21
2022-10-20T14:00:27.645Z,12.26
2022-10-20T14:03:00.767Z,12.30
2022-10-20T14:05:29.331Z,12.32
2022-10-20T14:07:56.175Z,12.32
2022-10-20T14:10:26.368Z,12.31
2022-10-20T14:12:54.593Z,12.29
2022-10-20T14:15:28.720Z,12.29
2022-10-20T14:17:57.047Z,12.27
2022-10-20T14:20:24.700Z,12.20
2022-10-20T14:22:53.720Z,12.26
2022-10-20T14:25:21.192Z,12.30
2022-10-20T14:27:48.788Z,12.32
2022-10-20T14:30:17.198Z,12.35
2022-10-20T14:32:47.706Z,12.38
2022-10-20T14:35:26.436Z,12.39
2022-10-20T14:37:58.149Z,12.42
2022-10-20T14:40:27.941Z,12.45
2022-10-20T14:43:00.288Z,12.44
2022-10-20T14:45:28.580Z,12.50
2022-10-20T14:47:59.204Z,12.51
2022-10-20T14:50:32.665Z,12.53
2022-10-20T14:53:18.388Z,12.51
2022-10-20T14:55:45.636Z,12.53
2022-10-20T14:58:33.707Z,12.42
2022-10-20T15:01:24.072Z,12.55
2022-10-20T15:04:06.706Z,12.43
2022-10-20T15:06:34.544Z,12.56
2022-10-20T15:09:01.842Z,12.64
2022-10-20T15:11:31.790Z,12.66
2022-10-20T15:14:00.523Z,12.71
2022-10-20T15:16:42.840Z,12.75
2022-10-20T15:19:33.066Z,12.76
2022-10-20T15:22:11.041Z,12.80
2022-10-20T15:24:38.579Z,12.78
2022-10-20T15:27:06.784Z,12.83
2022-10-20T15:29:33.872Z,12.87
2022-10-20T15:32:03.124Z,12.90
2022-10-20T15:34:31.459Z,12.70
2022-10-20T15:36:58.169Z,12.95
2022-10-20T15:39:25.262Z,12.97
2022-10-20T15:41:53.838Z,12.88
2022-10-20T15:44:22.476Z,13.00
2022-10-20T15:46:53.466Z,12.99
2022-10-20T15:49:20.599Z,13.00
2022-10-20T15:51:50.643Z,13.06
2022-10-20T15:54:19.136Z,12.97
2022-10-20T15:56:45.989Z,13.09
2022-10-20T15:59:12.779Z,13.11
2022-10-20T16:01:39.645Z,13.09
2022-10-20T16:04:18.590Z,13.14
2022-10-20T16:06:45.674Z,13.14
2022-10-20T16:09:16.106Z,13.16
2022-10-20T16:11:43.547Z,13.23
2022-10-20T16:14:10.746Z,13.21
2022-10-20T16:16:37.638Z,13.20
2022-10-20T16:19:05.174Z,13.19
2022-10-20T16:21:32.876Z,13.15
2022-10-20T16:24:01.231Z,13.09
2022-10-20T16:26:29.905Z,13.07
2022-10-20T16:28:56.684Z,13.02
2022-10-20T16:31:23.476Z,12.96
2022-10-20T16:33:50.344Z,12.93
2022-10-20T16:36:18.195Z,12.81
2022-10-20T16:38:45.311Z,12.83
2022-10-20T16:41:14.081Z,12.77
2022-10-20T16:43:44.199Z,12.73
2022-10-20T16:46:12.715Z,12.69
2022-10-20T16:48:42.549Z,12.64
2022-10-20T16:51:15.187Z,12.61
2022-10-20T16:53:42.026Z,12.64
2022-10-20T16:56:09.197Z,12.66
2022-10-20T16:58:36.083Z,12.65
2022-10-20T17:01:08.370Z,12.54
2022-10-20T17:03:35.698Z,12.61
2022-10-20T17:06:05.777Z,12.66
2022-10-20T17:08:33.118Z,12.69
2022-10-20T17:11:01.855Z,12.61
2022-10-20T17:13:29.742Z,12.59
2022-10-20T17:15:57.030Z,12.56
2022-10-20T17:18:25.388Z,12.63
2022-10-20T17:20:55.478Z,12.61
2022-10-20T17:23:22.631Z,12.58
2022-10-20T17:25:49.780Z,12.49
2022-10-20T17:28:17.532Z,12.58
2022-10-20T17:30:46.192Z,12.62
2022-10-20T17:33:13.220Z,12.67
2022-10-20T17:35:47.014Z,12.64
2022-10-20T17:38:13.911Z,12.62
2022-10-20T17:40:40.652Z,12.61
2022-10-20T17:43:07.625Z,12.63
2022-10-20T17:45:37.449Z,12.62
2022-10-20T17:48:05.463Z,12.55
2022-10-20T17:50:32.565Z,12.55
2022-10-20T17:53:03.859Z,12.43
2022-10-20T17:55:33.247Z,12.52
2022-10-20T17:58:04.910Z,12.49
2022-10-20T18:00:51.490Z,12.50
2022-10-20T18:03:20.504Z,12.50
2022-10-20T18:05:47.455Z,12.55
2022-10-20T18:08:15.794Z,12.61
2022-10-20T18:10:43.880Z,12.61
2022-10-20T18:13:11.278Z,12.56
2022-10-20T18:15:43.029Z,12.52
2022-10-20T18:18:09.849Z,12.56
2022-10-20T18:20:36.771Z,12.52
2022-10-20T18:23:03.575Z,12.47
2022-10-20T18:25:31.768Z,12.43
2022-10-20T18:27:58.515Z,12.42
2022-10-20T18:30:25.254Z,12.42
2022-10-20T18:32:52.019Z,12.41
2022-10-20T18:37:50.114Z,12.50
2022-10-20T18:40:17.078Z,12.52
2022-10-20T18:42:45.173Z,12.67
2022-10-20T18:45:12.244Z,12.74
2022-10-20T18:47:40.864Z,12.81
2022-10-20T18:50:08.229Z,12.87
2022-10-20T18:52:35.578Z,12.87
2022-10-20T18:55:02.602Z,12.79
2022-10-20T18:57:30.849Z,12.86
2022-10-20T18:59:59.200Z,12.82
2022-10-20T19:02:28.482Z,12.72
2022-10-20T19:04:55.276Z,12.73
2022-10-20T19:07:22.138Z,12.69
2022-10-20T19:09:53.385Z,12.73
2022-10-20T19:12:22.399Z,12.74
2022-10-20T19:14:49.140Z,12.78
2022-10-20T19:17:17.465Z,12.85
2022-10-20T19:19:45.050Z,12.85
2022-10-20T19:22:11.764Z,12.85
2022-10-20T19:24:40.602Z,12.91
2022-10-20T19:27:25.492Z,12.91
2022-10-20T19:29:56.093Z,12.86
2022-10-20T19:32:24.170Z,12.86
2022-10-20T19:34:51.190Z,12.88
2022-10-20T19:37:18.146Z,12.86
2022-10-20T19:39:44.915Z,12.83
2022-10-20T19:42:12.171Z,12.84
2022-10-20T19:44:39.627Z,12.79
2022-10-20T19:47:07.552Z,12.77
2022-10-20T19:49:35.931Z,12.82
2022-10-20T19:52:02.905Z,12.83
2022-10-20T19:54:30.043Z,12.77
2022-10-20T19:56:56.965Z,12.78
2022-10-20T19:59:24.022Z,12.80
2022-10-20T20:01:52.614Z,12.80
2022-10-20T20:04:19.574Z,12.87
2022-10-20T20:06:48.202Z,12.89
2022-10-20T20:09:17.805Z,12.81
2022-10-20T20:11:44.629Z,12.85
2022-10-20T20:14:14.137Z,12.82
2022-10-20T20:16:40.888Z,12.80
2022-10-20T20:19:08.814Z,12.77
2022-10-20T20:21:35.642Z,12.79
2022-10-20T20:24:04.628Z,12.79
2022-10-20T20:26:33.349Z,12.73
2022-10-20T20:29:00.479Z,12.78
2022-10-20T20:31:28.074Z,12.78
2022-10-20T20:33:56.783Z,12.76
2022-10-20T20:36:27.107Z,12.68
2022-10-20T20:38:56.662Z,12.69
2022-10-20T20:41:27.134Z,12.67
2022-10-20T20:43:54.311Z,12.64
2022-10-20T20:46:22.767Z,12.65
2022-10-20T20:48:50.023Z,12.62
2022-10-20T20:51:17.277Z,12.58
2022-10-20T20:53:44.403Z,12.55
2022-10-20T20:56:13.643Z,12.50
2022-10-20T20:58:45.329Z,12.45
2022-10-20T21:01:14.390Z,12.44
2022-10-20T21:03:41.588Z,12.38
2022-10-20T21:06:10.727Z,12.34
2022-10-20T21:08:40.098Z,12.27
2022-10-20T21:11:07.306Z,12.25
2022-10-20T21:13:34.587Z,12.26
2022-10-20T21:16:10.935Z,12.25
2022-10-20T21:18:38.312Z,12.22
2022-10-20T21:23:42.184Z,12.23
2022-10-20T21:26:10.629Z,12.18
2022-10-20T21:28:37.705Z,12.29
2022-10-20T21:31:05.050Z,12.34
2022-10-20T21:33:33.441Z,12.42
2022-10-20T21:36:00.973Z,12.43
2022-10-20T21:38:29.904Z,12.48
2022-10-20T21:41:01.894Z,12.49
2022-10-20T21:43:29.307Z,12.54
2022-10-20T21:45:56.127Z,12.54
2022-10-20T21:48:22.958Z,12.57
2022-10-20T21:50:51.287Z,12.59
2022-10-20T21:53:18.068Z,12.68
2022-10-20T21:55:44.847Z,12.73
2022-10-20T21:58:11.589Z,12.76
2022-10-20T22:00:38.483Z,12.84
2022-10-20T22:03:05.323Z,12.86
2022-10-20T22:05:32.095Z,12.93
2022-10-20T22:08:00.229Z,12.94
2022-10-20T22:10:27.061Z,12.96
2022-10-20T22:12:53.778Z,12.85
2022-10-20T22:15:20.639Z,12.99
2022-10-20T22:17:47.521Z,13.03
2022-10-20T22:20:14.273Z,12.97
2022-10-20T22:22:41.091Z,13.04
2022-10-20T22:25:09.797Z,13.10
2022-10-20T22:27:42.254Z,12.83
2022-10-20T22:30:10.816Z,13.09
2022-10-20T22:32:37.737Z,13.01
2022-10-20T22:35:05.598Z,13.06
2022-10-20T22:37:32.359Z,12.99
2022-10-20T22:39:59.195Z,13.05
2022-10-20T22:42:27.424Z,13.01
2022-10-20T22:44:54.140Z,12.94
2022-10-20T22:47:20.893Z,12.93
2022-10-20T22:49:47.680Z,12.88
2022-10-20T22:52:14.759Z,12.84
2022-10-20T22:54:41.684Z,12.69
2022-10-20T22:57:08.416Z,12.74
2022-10-20T22:59:36.681Z,12.71
2022-10-20T23:02:03.587Z,12.68
2022-10-20T23:04:30.343Z,12.65
2022-10-20T23:06:58.224Z,12.59
2022-10-20T23:09:25.644Z,12.56
2022-10-20T23:11:52.481Z,12.43
2022-10-20T23:14:19.335Z,12.49
2022-10-20T23:16:47.459Z,12.45
2022-10-20T23:19:14.285Z,12.41
2022-10-20T23:21:40.959Z,12.32
2022-10-20T23:24:07.730Z,12.33
2022-10-20T23:26:34.498Z,12.37
2022-10-20T23:29:01.245Z,12.33
2022-10-20T23:31:27.996Z,12.38
2022-10-20T23:33:56.737Z,12.40
2022-10-20T23:36:24.047Z,12.38
2022-10-20T23:38:50.780Z,12.35
2022-10-20T23:41:17.663Z,12.34
2022-10-20T23:43:44.611Z,12.28
2022-10-20T23:46:12.481Z,12.29
2022-10-20T23:48:39.826Z,12.30
2022-10-20T23:51:08.360Z,12.18
2022-10-20T23:53:35.888Z,12.19
2022-10-20T23:56:03.120Z,12.21
2022-10-20T23:58:29.958Z,12.18
